YSNW/NOA METAR and TAF weather

Enter ICAO airport designator
Station Type Date Time Source
YSNW METAR 2019/08/25 17:00 UTC NOAA

YSNW 251700Z AUTO 22006KT 9999 // OVC031 10/10 Q1021


Station Type Date Time Source
YSNW Decoded METAR 2019/08/25 17:00 UTC NOAA

Station name not available
Aug 25, 2019 - 01:00 PM EDT / 2019.08.25 1700 UTC
Wind: from the SW (220 degrees) at 7 MPH (6 KT):0
Visibility: greater than 7 mile(s):0
Sky conditions: overcast
Temperature: 50 F (10 C)
Dew Point: 50 F (10 C)
Relative Humidity: 100%
Pressure (altimeter): 30.15 in. Hg (1021 hPa)
ob: YSNW 251700Z AUTO 22006KT 9999 // OVC031 10/10 Q1021
cycle: 17

Station Type Date Time Source
YSNW TAF UTC NOAA

Error!

Example: see airport list